Vale Grand Sud — FICV — position and weather

sailwx.info

Track history (hours):
 
Tides and Currents Weather Stations Pressure Air Temp Water Temp Dewpoint Dewpoint Depression Visibility Wind Speed Wind Dir Waves Ship Positions

Vale Grand Sud

Last reported at 2017-Nov-19 20:02 UTC. Time now 2017-Nov-21 13:38 UTC.
Position S 22°23' E 166°40'.

Length 41 m; draft 2.5 m.

Type: High speed craft. MMSI: 540011300.

Date/timePositionNaut miles runAvg speedWind from/ knotsBaromVisibWave heightAir tempDewpointWater temp
2017-Nov-19 20:02S 22°23' E 166°40'234.9
2017-Nov-19 19:59S 22°23' E 166°38'1226.3
2017-Nov-19 19:30S 22°16' E 166°26'0 0.7
2017-Nov-19 19:00S 22°16' E 166°26'0 0.0
2017-Nov-19 18:30S 22°16' E 166°26'0 0.0
2017-Nov-19 17:59S 22°16' E 166°26'0 0.0
2017-Nov-19 17:30S 22°16' E 166°26'0 0.0
2017-Nov-19 16:59S 22°16' E 166°26'0 0.0
2017-Nov-19 16:29S 22°16' E 166°26'0 0.0
2017-Nov-19 15:59S 22°16' E 166°26'0 0.0
2017-Nov-19 15:29S 22°16' E 166°26'0 0.0
2017-Nov-19 14:59S 22°16' E 166°26'0 0.0
2017-Nov-19 14:29S 22°16' E 166°26'0 0.0
2017-Nov-19 13:59S 22°16' E 166°26'0 0.0
2017-Nov-19 13:30S 22°16' E 166°26'0 0.0
2017-Nov-19 12:59S 22°16' E 166°26'0 0.0
2017-Nov-19 12:29S 22°16' E 166°26'0 0.0
2017-Nov-19 11:59S 22°16' E 166°26'0 0.0
2017-Nov-19 11:29S 22°16' E 166°26'0 0.0
2017-Nov-19 10:59S 22°16' E 166°26'0 0.0
2017-Nov-19 10:29S 22°16' E 166°26'0 0.0
2017-Nov-19 09:59S 22°16' E 166°26'0 0.1
2017-Nov-19 09:30S 22°16' E 166°26'1122.8
2017-Nov-19 09:00S 22°22' E 166°36'1 0.4
2017-Nov-19 07:41S 22°23' E 166°37'636.2
2017-Nov-19 07:31S 22°21' E 166°30'612.1
2017-Nov-19 07:00S 22°16' E 166°26'0 0.0
2017-Nov-19 06:30S 22°16' E 166°26'0 0.0
2017-Nov-19 06:00S 22°16' E 166°26'0 0.0
2017-Nov-19 05:30S 22°16' E 166°26'0 0.0
2017-Nov-19 05:00S 22°16' E 166°26'0 0.0
2017-Nov-19 04:30S 22°16' E 166°26'0 0.0
2017-Nov-19 04:00S 22°16' E 166°26'0 0.0
2017-Nov-19 03:30S 22°16' E 166°26'0 0.0
2017-Nov-19 03:00S 22°16' E 166°26'0 0.0
2017-Nov-19 02:30S 22°16' E 166°26'0 0.0
2017-Nov-19 02:00S 22°16' E 166°26'0 0.0
2017-Nov-19 01:30S 22°16' E 166°26'0 0.0
2017-Nov-19 01:00S 22°16' E 166°26'0 0.0
2017-Nov-19 00:30S 22°16' E 166°26'0 0.0
2017-Nov-19 00:00S 22°16' E 166°26'0 0.0
2017-Nov-18 23:30S 22°16' E 166°26'0 1.0
2017-Nov-18 23:00S 22°17' E 166°26'1629.2
2017-Nov-18 22:28S 22°23' E 166°41'2 0.8
2017-Nov-18 20:00S 22°23' E 166°39'1428.6
2017-Nov-18 19:31S 22°16' E 166°26'0 0.8
2017-Nov-18 19:00S 22°16' E 166°26'0 0.0
2017-Nov-18 18:30S 22°16' E 166°26'0 0.0
2017-Nov-18 18:00S 22°16' E 166°26'0 0.0
2017-Nov-18 17:30S 22°16' E 166°26'0 0.0
2017-Nov-18 17:00S 22°16' E 166°26'0 0.0
2017-Nov-18 16:30S 22°16' E 166°26'0 0.0
2017-Nov-18 16:00S 22°16' E 166°26'0 0.0
2017-Nov-18 15:30S 22°16' E 166°26'0 0.0
2017-Nov-18 15:00S 22°16' E 166°26'0 0.0
2017-Nov-18 14:30S 22°16' E 166°26'0 0.0
2017-Nov-18 14:00S 22°16' E 166°26'0 0.0
2017-Nov-18 13:30S 22°16' E 166°26'0 0.0
2017-Nov-18 13:00S 22°16' E 166°26'0 0.0
2017-Nov-18 12:30S 22°16' E 166°26'0 0.0
2017-Nov-18 12:00S 22°16' E 166°26'0 0.0
2017-Nov-18 11:30S 22°16' E 166°26'0 0.0
2017-Nov-18 11:00S 22°16' E 166°26'2 4.6
2017-Nov-18 10:31S 22°18' E 166°25'14 5.6
2017-Nov-18 08:03S 22°23' E 166°39'231.7
2017-Nov-18 08:01S 22°23' E 166°38'1224.9
2017-Nov-18 07:31S 22°17' E 166°26'0 0.9
2017-Nov-18 07:00S 22°16' E 166°26'0 0.0
2017-Nov-18 06:30S 22°16' E 166°26'0 0.0
2017-Nov-18 06:00S 22°16' E 166°26'0 0.0
2017-Nov-18 05:30S 22°16' E 166°26'0 0.0
2017-Nov-18 05:00S 22°16' E 166°26'0 0.0
2017-Nov-18 04:30S 22°16' E 166°26'0 0.0
2017-Nov-18 04:00S 22°16' E 166°26'0 0.0
2017-Nov-18 03:27S 22°16' E 166°26'0 0.0
2017-Nov-18 03:00S 22°16' E 166°26'0 0.0
2017-Nov-18 02:30S 22°16' E 166°26'0 0.0
2017-Nov-18 02:00S 22°16' E 166°26'0 0.0
2017-Nov-18 01:30S 22°16' E 166°26'0 0.0
2017-Nov-18 01:00S 22°16' E 166°26'0 0.0
2017-Nov-18 00:27S 22°16' E 166°26'0 0.0
2017-Nov-18 00:00S 22°16' E 166°26'0 0.0
2017-Nov-17 23:30S 22°16' E 166°26'0 0.0
2017-Nov-17 23:00S 22°16' E 166°26'0 0.0
2017-Nov-17 22:30S 22°16' E 166°26'0 0.0
2017-Nov-17 22:00S 22°16' E 166°26'0 0.0
2017-Nov-17 21:30S 22°16' E 166°26'0 0.0
2017-Nov-17 21:00S 22°16' E 166°26'0 0.0
2017-Nov-17 20:30S 22°16' E 166°26'0 0.0
2017-Nov-17 20:00S 22°16' E 166°26'0 0.0
2017-Nov-17 19:30S 22°16' E 166°26'0 0.0
2017-Nov-17 19:00S 22°16' E 166°26'0 0.0
2017-Nov-17 18:30S 22°16' E 166°26'0 0.0
2017-Nov-17 18:00S 22°16' E 166°26'0 0.0
2017-Nov-17 17:30S 22°16' E 166°26'0 0.0
2017-Nov-17 17:00S 22°16' E 166°26'0 0.0
2017-Nov-17 16:27S 22°16' E 166°26'0 0.0
2017-Nov-17 16:00S 22°16' E 166°26'0 0.0
2017-Nov-17 15:30S 22°16' E 166°26'0 0.0
2017-Nov-17 15:00S 22°16' E 166°26'0 0.0
2017-Nov-17 14:30S 22°16' E 166°26'0 0.0
2017-Nov-17 14:00S 22°16' E 166°26'0 0.0
2017-Nov-17 13:30S 22°16' E 166°26'0 0.0
2017-Nov-17 13:00S 22°16' E 166°26'0 0.0
2017-Nov-17 12:30S 22°16' E 166°26'0 0.0
2017-Nov-17 12:00S 22°16' E 166°26'0 0.0
2017-Nov-17 11:30S 22°16' E 166°26'0 0.0
2017-Nov-17 11:00S 22°16' E 166°26'0 0.0
2017-Nov-17 10:30S 22°16' E 166°26'0 0.0
2017-Nov-17 10:00S 22°16' E 166°26'0 0.0
2017-Nov-17 09:30S 22°16' E 166°26'0 0.0
2017-Nov-17 09:00S 22°16' E 166°26'0 0.0
2017-Nov-17 08:30S 22°16' E 166°26'0 0.0
2017-Nov-17 08:00S 22°16' E 166°26'0 0.0
2017-Nov-17 07:30S 22°16' E 166°26'0 0.0
2017-Nov-17 07:00S 22°16' E 166°26'1 2.3
2017-Nov-17 06:30S 22°17' E 166°26'11 1.0
2017-Nov-16 19:56S 22°21' E 166°36'1124.6
2017-Nov-16 19:31S 22°16' E 166°26'0 0.6
2017-Nov-16 19:00S 22°16' E 166°26'0 0.0
2017-Nov-16 18:30S 22°16' E 166°26'0 0.0
2017-Nov-16 18:00S 22°16' E 166°26'0 0.0
2017-Nov-16 17:30S 22°16' E 166°26'0 0.0
2017-Nov-16 17:00S 22°16' E 166°26'0 0.0
2017-Nov-16 16:30S 22°16' E 166°26'0 0.0
2017-Nov-16 16:00S 22°16' E 166°26'0 0.0
2017-Nov-16 15:30S 22°16' E 166°26'0 0.0
2017-Nov-16 15:00S 22°16' E 166°26'0 0.0
2017-Nov-16 14:30S 22°16' E 166°26'0 0.0
2017-Nov-16 14:00S 22°16' E 166°26'0 0.0
2017-Nov-16 13:30S 22°16' E 166°26'0 0.0
2017-Nov-16 13:00S 22°16' E 166°26'0 0.0
2017-Nov-16 12:30S 22°16' E 166°26'0 0.0
2017-Nov-16 12:00S 22°16' E 166°26'0 0.0
2017-Nov-16 11:30S 22°16' E 166°26'0 0.0
2017-Nov-16 11:00S 22°16' E 166°26'0 0.0
2017-Nov-16 10:30S 22°16' E 166°26'0 0.0
2017-Nov-16 10:00S 22°16' E 166°26'0 0.0
2017-Nov-16 09:30S 22°16' E 166°26'0 0.0
2017-Nov-16 09:00S 22°16' E 166°26'0 0.0
2017-Nov-16 08:30S 22°16' E 166°26'0 0.0
2017-Nov-16 08:00S 22°16' E 166°26'0 0.0
2017-Nov-16 07:30S 22°16' E 166°26'0 0.0
2017-Nov-16 07:00S 22°16' E 166°26'1 2.0
2017-Nov-16 06:31S 22°17' E 166°26'14 1.4
2017-Nov-15 20:03S 22°23' E 166°40'235.0
2017-Nov-15 20:00S 22°23' E 166°37'1224.9
2017-Nov-15 19:31S 22°16' E 166°26'0 0.3
2017-Nov-15 19:00S 22°16' E 166°26'0 0.0
2017-Nov-15 18:30S 22°16' E 166°26'0 0.0
2017-Nov-15 18:01S 22°16' E 166°26'0 0.0
2017-Nov-15 17:31S 22°16' E 166°26'0 0.0
2017-Nov-15 17:01S 22°16' E 166°26'0 0.0
2017-Nov-15 16:31S 22°16' E 166°26'0 0.0
2017-Nov-15 16:01S 22°16' E 166°26'0 0.0
2017-Nov-15 15:31S 22°16' E 166°26'0 0.0
2017-Nov-15 15:00S 22°16' E 166°26'0 0.0
2017-Nov-15 14:30S 22°16' E 166°26'0 0.0
2017-Nov-15 14:00S 22°16' E 166°26'0 0.0
2017-Nov-15 13:31S 22°16' E 166°26'0 0.0
2017-Nov-15 13:01S 22°16' E 166°26'0 0.0
2017-Nov-15 12:31S 22°16' E 166°26'0 0.0
2017-Nov-15 12:00S 22°16' E 166°26'0 0.0
2017-Nov-15 11:30S 22°16' E 166°26'0 0.0
2017-Nov-15 11:01S 22°16' E 166°26'0 0.0
2017-Nov-15 10:31S 22°16' E 166°26'0 0.0
2017-Nov-15 10:00S 22°16' E 166°26'0 0.0
2017-Nov-15 09:31S 22°16' E 166°26'1121.6
2017-Nov-15 09:00S 22°22' E 166°36'1 0.7
2017-Nov-15 07:42S 22°23' E 166°37'736.0
2017-Nov-15 07:30S 22°21' E 166°30'611.2
2017-Nov-15 07:01S 22°16' E 166°26'1 2.0
2017-Nov-15 06:30S 22°17' E 166°26'14 2.2
2017-Nov-15 00:06S 22°23' E 166°39'331.2
2017-Nov-15 00:01S 22°22' E 166°36'1122.4
2017-Nov-14 23:31S 22°16' E 166°26'0 0.9
2017-Nov-14 23:00S 22°17' E 166°26'14 4.8
2017-Nov-14 20:03S 22°23' E 166°39'234.8
2017-Nov-14 20:00S 22°23' E 166°37'1224.9
2017-Nov-14 19:31S 22°16' E 166°26'0 0.1
2017-Nov-14 19:00S 22°16' E 166°26'0 0.0
2017-Nov-14 18:30S 22°16' E 166°26'0 0.0
2017-Nov-14 18:00S 22°16' E 166°26'0 0.0
2017-Nov-14 17:30S 22°16' E 166°26'0 0.0
2017-Nov-14 17:00S 22°16' E 166°26'0 0.0
2017-Nov-14 16:30S 22°16' E 166°26'0 0.0
2017-Nov-14 16:00S 22°16' E 166°26'0 0.0
2017-Nov-14 15:30S 22°16' E 166°26'0 0.0
2017-Nov-14 15:00S 22°16' E 166°26'0 0.0
2017-Nov-14 14:30S 22°16' E 166°26'0 0.0
2017-Nov-14 14:00S 22°16' E 166°26'0 0.0
2017-Nov-14 13:30S 22°16' E 166°26'0 0.0
2017-Nov-14 13:00S 22°16' E 166°26'0 0.0
2017-Nov-14 12:30S 22°16' E 166°26'0 0.0
2017-Nov-14 12:00S 22°16' E 166°26'0 0.0
2017-Nov-14 11:30S 22°16' E 166°26'0 0.0
2017-Nov-14 11:00S 22°16' E 166°26'1 2.2
2017-Nov-14 10:31S 22°17' E 166°26'13 5.4
2017-Nov-14 08:02S 22°23' E 166°39'134.3
2017-Nov-14 08:00S 22°23' E 166°38'1225.0
2017-Nov-14 07:31S 22°16' E 166°26'0 0.7
2017-Nov-14 07:00S 22°16' E 166°26'1 2.6
2017-Nov-14 06:31S 22°17' E 166°25'12 0.4
2017-Nov-12 19:59S 22°23' E 166°37'1225.8
2017-Nov-12 19:31S 22°16' E 166°26'0 0.5
2017-Nov-12 19:00S 22°16' E 166°26'0 0.0
2017-Nov-12 18:30S 22°16' E 166°26'0 0.0
2017-Nov-12 18:00S 22°16' E 166°26'0 0.0
2017-Nov-12 17:30S 22°16' E 166°26'0 0.0
2017-Nov-12 17:00S 22°16' E 166°26'0 0.0
2017-Nov-12 16:30S 22°16' E 166°26'0 0.0
2017-Nov-12 16:00S 22°16' E 166°26'0 0.0
2017-Nov-12 15:30S 22°16' E 166°26'0 0.0
2017-Nov-12 15:00S 22°16' E 166°26'0 0.0
2017-Nov-12 14:30S 22°16' E 166°26'0 0.0
2017-Nov-12 14:00S 22°16' E 166°26'0 0.0
2017-Nov-12 13:30S 22°16' E 166°26'0 0.0
2017-Nov-12 13:00S 22°16' E 166°26'0 0.0
2017-Nov-12 12:30S 22°16' E 166°26'0 0.0
2017-Nov-12 12:00S 22°16' E 166°26'0 0.0
2017-Nov-12 11:30S 22°16' E 166°26'0 0.0
2017-Nov-12 11:00S 22°16' E 166°26'0 0.0
2017-Nov-12 10:30S 22°16' E 166°26'0 0.0
2017-Nov-12 10:00S 22°16' E 166°26'0 0.0
2017-Nov-12 09:30S 22°16' E 166°26'0 0.0
2017-Nov-12 09:00S 22°16' E 166°26'0 0.0
2017-Nov-12 08:30S 22°16' E 166°26'0 0.0
2017-Nov-12 08:00S 22°16' E 166°26'0 0.0
2017-Nov-12 07:30S 22°16' E 166°26'0 0.0
2017-Nov-12 07:00S 22°16' E 166°26'0 0.0
2017-Nov-12 06:30S 22°16' E 166°26'0 0.0
2017-Nov-12 06:00S 22°16' E 166°26'0 0.0
2017-Nov-12 05:30S 22°16' E 166°26'0 0.0
2017-Nov-12 05:00S 22°16' E 166°26'0 0.0
2017-Nov-12 04:30S 22°16' E 166°26'0 0.0
2017-Nov-12 04:00S 22°16' E 166°26'0 0.0
2017-Nov-12 03:30S 22°16' E 166°26'0 0.0
2017-Nov-12 03:00S 22°16' E 166°26'0 0.0
2017-Nov-12 02:30S 22°16' E 166°26'0 0.0
2017-Nov-12 02:00S 22°16' E 166°26'0 0.0
2017-Nov-12 01:30S 22°16' E 166°26'0 0.0
2017-Nov-12 01:00S 22°16' E 166°26'0 0.0
2017-Nov-12 00:30S 22°16' E 166°26'0 0.0
2017-Nov-12 00:00S 22°16' E 166°26'0 0.0
2017-Nov-11 23:30S 22°16' E 166°26'0 0.0
2017-Nov-11 23:00S 22°16' E 166°26'0 0.0
2017-Nov-11 22:30S 22°16' E 166°26'0 0.0
2017-Nov-11 22:00S 22°16' E 166°26'0 0.0
2017-Nov-11 21:30S 22°16' E 166°26'0 0.0
2017-Nov-11 21:00S 22°16' E 166°26'0 0.0
2017-Nov-11 20:30S 22°16' E 166°26'0 0.0
2017-Nov-11 20:00S 22°16' E 166°26'0 0.0
2017-Nov-11 19:30S 22°16' E 166°26'0 0.0
2017-Nov-11 19:00S 22°16' E 166°26'0 0.0
2017-Nov-11 18:30S 22°16' E 166°26'0 0.0
2017-Nov-11 18:00S 22°16' E 166°26'0 0.0
2017-Nov-11 17:30S 22°16' E 166°26'0 0.0
2017-Nov-11 17:00S 22°16' E 166°26'0 0.0
2017-Nov-11 16:30S 22°16' E 166°26'0 0.0
2017-Nov-11 16:00S 22°16' E 166°26'0 0.0
2017-Nov-11 15:30S 22°16' E 166°26'0 0.0
2017-Nov-11 15:00S 22°16' E 166°26'0 0.0
2017-Nov-11 14:30S 22°16' E 166°26'0 0.0
2017-Nov-11 14:00S 22°16' E 166°26'0 0.0
2017-Nov-11 13:30S 22°16' E 166°26'0 0.0
2017-Nov-11 13:00S 22°16' E 166°26'0 0.0
2017-Nov-11 12:30S 22°16' E 166°26'0 0.0
2017-Nov-11 12:00S 22°16' E 166°26'0 0.0
2017-Nov-11 11:30S 22°16' E 166°26'0 0.0
2017-Nov-11 11:00S 22°16' E 166°26'0 0.0
2017-Nov-11 10:30S 22°16' E 166°26'0 0.0
2017-Nov-11 10:00S 22°16' E 166°26'0 0.5
2017-Nov-11 09:30S 22°16' E 166°26'1324.7
2017-Nov-11 08:58S 22°23' E 166°38'1 0.8
2017-Nov-11 07:44S 22°23' E 166°37'835.1
2017-Nov-11 07:31S 22°20' E 166°29'5 9.9
2017-Nov-11 07:00S 22°16' E 166°26'0 0.0
2017-Nov-11 06:30S 22°16' E 166°26'0 0.0
2017-Nov-11 06:00S 22°16' E 166°26'0 0.0
2017-Nov-11 05:30S 22°16' E 166°26'0 0.0
2017-Nov-11 05:00S 22°16' E 166°26'0 0.0
2017-Nov-11 04:30S 22°16' E 166°26'0 0.0
2017-Nov-11 04:00S 22°16' E 166°26'0 0.0
2017-Nov-11 03:30S 22°16' E 166°26'0 0.0
2017-Nov-11 03:00S 22°16' E 166°26'0 0.0
2017-Nov-11 02:30S 22°16' E 166°26'0 0.0
2017-Nov-11 02:00S 22°16' E 166°26'0 0.0
2017-Nov-11 01:30S 22°16' E 166°26'0 0.0
2017-Nov-11 01:00S 22°16' E 166°26'0 0.0
2017-Nov-11 00:30S 22°16' E 166°26'0 0.0
2017-Nov-11 00:00S 22°16' E 166°26'0 0.0
2017-Nov-10 23:30S 22°16' E 166°26'1 1.1
2017-Nov-10 23:00S 22°17' E 166°26'12 3.8
2017-Nov-10 19:59S 22°21' E 166°38'1224.8
2017-Nov-10 19:30S 22°16' E 166°26'0 0.5
2017-Nov-10 19:00S 22°16' E 166°26'0 0.0
2017-Nov-10 18:30S 22°16' E 166°26'0 0.0
2017-Nov-10 18:00S 22°16' E 166°26'0 0.0
2017-Nov-10 17:30S 22°16' E 166°26'0 0.0
2017-Nov-10 17:00S 22°16' E 166°26'0 0.0
2017-Nov-10 16:30S 22°16' E 166°26'0 0.0
2017-Nov-10 16:00S 22°16' E 166°26'0 0.0
2017-Nov-10 15:30S 22°16' E 166°26'0 0.0
2017-Nov-10 15:00S 22°16' E 166°26'0 0.0
2017-Nov-10 14:30S 22°16' E 166°26'0 0.0
2017-Nov-10 14:00S 22°16' E 166°26'0 0.0
2017-Nov-10 13:30S 22°16' E 166°26'0 0.0
2017-Nov-10 13:00S 22°16' E 166°26'0 0.0
2017-Nov-10 12:30S 22°16' E 166°26'0 0.0
2017-Nov-10 12:00S 22°16' E 166°26'0 0.0
2017-Nov-10 11:30S 22°16' E 166°26'0 0.0
2017-Nov-10 11:00S 22°16' E 166°26'2 3.6
2017-Nov-10 10:31S 22°18' E 166°25'14 5.7
2017-Nov-10 08:04S 22°23' E 166°39'231.3
2017-Nov-10 07:59S 22°23' E 166°37'1224.6
2017-Nov-10 07:30S 22°17' E 166°26'1 1.0
2017-Nov-10 07:01S 22°16' E 166°26'2 4.5
2017-Nov-10 06:31S 22°18' E 166°25'14 1.3
2017-Nov-09 20:06S 22°23' E 166°39'  
Track history (hours):
 
Tides and Currents Weather Stations Pressure Air Temp Water Temp Dewpoint Dewpoint Depression Visibility Wind Speed Wind Dir Waves Ship Positions

Vale Grand Sud

Last reported at 2017-Nov-19 20:02 UTC. Time now 2017-Nov-21 13:38 UTC.
Position S 22°23' E 166°40'.

Length 41 m; draft 2.5 m.

Type: High speed craft. MMSI: 540011300.

Date/timePositionNaut miles runAvg speedWind from/ knotsBaromVisibWave heightAir tempDewpointWater temp
2017-Nov-19 20:02S 22°23' E 166°40'234.9
2017-Nov-19 19:59S 22°23' E 166°38'1226.3
2017-Nov-19 19:30S 22°16' E 166°26'0 0.7
2017-Nov-19 19:00S 22°16' E 166°26'0 0.0
2017-Nov-19 18:30S 22°16' E 166°26'0 0.0
2017-Nov-19 17:59S 22°16' E 166°26'0 0.0
2017-Nov-19 17:30S 22°16' E 166°26'0 0.0
2017-Nov-19 16:59S 22°16' E 166°26'0 0.0
2017-Nov-19 16:29S 22°16' E 166°26'0 0.0
2017-Nov-19 15:59S 22°16' E 166°26'0 0.0
2017-Nov-19 15:29S 22°16' E 166°26'0 0.0
2017-Nov-19 14:59S 22°16' E 166°26'0 0.0
2017-Nov-19 14:29S 22°16' E 166°26'0 0.0
2017-Nov-19 13:59S 22°16' E 166°26'0 0.0
2017-Nov-19 13:30S 22°16' E 166°26'0 0.0
2017-Nov-19 12:59S 22°16' E 166°26'0 0.0
2017-Nov-19 12:29S 22°16' E 166°26'0 0.0
2017-Nov-19 11:59S 22°16' E 166°26'0 0.0
2017-Nov-19 11:29S 22°16' E 166°26'0 0.0
2017-Nov-19 10:59S 22°16' E 166°26'0 0.0
2017-Nov-19 10:29S 22°16' E 166°26'0 0.0
2017-Nov-19 09:59S 22°16' E 166°26'0 0.1
2017-Nov-19 09:30S 22°16' E 166°26'1122.8
2017-Nov-19 09:00S 22°22' E 166°36'1 0.4
2017-Nov-19 07:41S 22°23' E 166°37'636.2
2017-Nov-19 07:31S 22°21' E 166°30'612.1
2017-Nov-19 07:00S 22°16' E 166°26'0 0.0
2017-Nov-19 06:30S 22°16' E 166°26'0 0.0
2017-Nov-19 06:00S 22°16' E 166°26'0 0.0
2017-Nov-19 05:30S 22°16' E 166°26'0 0.0
2017-Nov-19 05:00S 22°16' E 166°26'0 0.0
2017-Nov-19 04:30S 22°16' E 166°26'0 0.0
2017-Nov-19 04:00S 22°16' E 166°26'0 0.0
2017-Nov-19 03:30S 22°16' E 166°26'0 0.0
2017-Nov-19 03:00S 22°16' E 166°26'0 0.0
2017-Nov-19 02:30S 22°16' E 166°26'0 0.0
2017-Nov-19 02:00S 22°16' E 166°26'0 0.0
2017-Nov-19 01:30S 22°16' E 166°26'0 0.0
2017-Nov-19 01:00S 22°16' E 166°26'0 0.0
2017-Nov-19 00:30S 22°16' E 166°26'0 0.0
2017-Nov-19 00:00S 22°16' E 166°26'0 0.0
2017-Nov-18 23:30S 22°16' E 166°26'0 1.0
2017-Nov-18 23:00S 22°17' E 166°26'1629.2
2017-Nov-18 22:28S 22°23' E 166°41'2 0.8
2017-Nov-18 20:00S 22°23' E 166°39'1428.6
2017-Nov-18 19:31S 22°16' E 166°26'0 0.8
2017-Nov-18 19:00S 22°16' E 166°26'0 0.0
2017-Nov-18 18:30S 22°16' E 166°26'0 0.0
2017-Nov-18 18:00S 22°16' E 166°26'0 0.0
2017-Nov-18 17:30S 22°16' E 166°26'0 0.0
2017-Nov-18 17:00S 22°16' E 166°26'0 0.0
2017-Nov-18 16:30S 22°16' E 166°26'0 0.0
2017-Nov-18 16:00S 22°16' E 166°26'0 0.0
2017-Nov-18 15:30S 22°16' E 166°26'0 0.0
2017-Nov-18 15:00S 22°16' E 166°26'0 0.0
2017-Nov-18 14:30S 22°16' E 166°26'0 0.0
2017-Nov-18 14:00S 22°16' E 166°26'0 0.0
2017-Nov-18 13:30S 22°16' E 166°26'0 0.0
2017-Nov-18 13:00S 22°16' E 166°26'0 0.0
2017-Nov-18 12:30S 22°16' E 166°26'0 0.0
2017-Nov-18 12:00S 22°16' E 166°26'0 0.0
2017-Nov-18 11:30S 22°16' E 166°26'0 0.0
2017-Nov-18 11:00S 22°16' E 166°26'2 4.6
2017-Nov-18 10:31S 22°18' E 166°25'14 5.6
2017-Nov-18 08:03S 22°23' E 166°39'231.7
2017-Nov-18 08:01S 22°23' E 166°38'1224.9
2017-Nov-18 07:31S 22°17' E 166°26'0 0.9
2017-Nov-18 07:00S 22°16' E 166°26'0 0.0
2017-Nov-18 06:30S 22°16' E 166°26'0 0.0
2017-Nov-18 06:00S 22°16' E 166°26'0 0.0
2017-Nov-18 05:30S 22°16' E 166°26'0 0.0
2017-Nov-18 05:00S 22°16' E 166°26'0 0.0
2017-Nov-18 04:30S 22°16' E 166°26'0 0.0
2017-Nov-18 04:00S 22°16' E 166°26'0 0.0
2017-Nov-18 03:27S 22°16' E 166°26'0 0.0
2017-Nov-18 03:00S 22°16' E 166°26'0 0.0
2017-Nov-18 02:30S 22°16' E 166°26'0 0.0
2017-Nov-18 02:00S 22°16' E 166°26'0 0.0
2017-Nov-18 01:30S 22°16' E 166°26'0 0.0
2017-Nov-18 01:00S 22°16' E 166°26'0 0.0
2017-Nov-18 00:27S 22°16' E 166°26'0 0.0
2017-Nov-18 00:00S 22°16' E 166°26'0 0.0
2017-Nov-17 23:30S 22°16' E 166°26'0 0.0
2017-Nov-17 23:00S 22°16' E 166°26'0 0.0
2017-Nov-17 22:30S 22°16' E 166°26'0 0.0
2017-Nov-17 22:00S 22°16' E 166°26'0 0.0
2017-Nov-17 21:30S 22°16' E 166°26'0 0.0
2017-Nov-17 21:00S 22°16' E 166°26'0 0.0
2017-Nov-17 20:30S 22°16' E 166°26'0 0.0
2017-Nov-17 20:00S 22°16' E 166°26'0 0.0
2017-Nov-17 19:30S 22°16' E 166°26'0 0.0
2017-Nov-17 19:00S 22°16' E 166°26'0 0.0
2017-Nov-17 18:30S 22°16' E 166°26'0 0.0
2017-Nov-17 18:00S 22°16' E 166°26'0 0.0
2017-Nov-17 17:30S 22°16' E 166°26'0 0.0
2017-Nov-17 17:00S 22°16' E 166°26'0 0.0
2017-Nov-17 16:27S 22°16' E 166°26'0 0.0
2017-Nov-17 16:00S 22°16' E 166°26'0 0.0
2017-Nov-17 15:30S 22°16' E 166°26'0 0.0
2017-Nov-17 15:00S 22°16' E 166°26'0 0.0
2017-Nov-17 14:30S 22°16' E 166°26'0 0.0
2017-Nov-17 14:00S 22°16' E 166°26'0 0.0
2017-Nov-17 13:30S 22°16' E 166°26'0 0.0
2017-Nov-17 13:00S 22°16' E 166°26'0 0.0
2017-Nov-17 12:30S 22°16' E 166°26'0 0.0
2017-Nov-17 12:00S 22°16' E 166°26'0 0.0
2017-Nov-17 11:30S 22°16' E 166°26'0 0.0
2017-Nov-17 11:00S 22°16' E 166°26'0 0.0
2017-Nov-17 10:30S 22°16' E 166°26'0 0.0
2017-Nov-17 10:00S 22°16' E 166°26'0 0.0
2017-Nov-17 09:30S 22°16' E 166°26'0 0.0
2017-Nov-17 09:00S 22°16' E 166°26'0 0.0
2017-Nov-17 08:30S 22°16' E 166°26'0 0.0
2017-Nov-17 08:00S 22°16' E 166°26'0 0.0
2017-Nov-17 07:30S 22°16' E 166°26'0 0.0
2017-Nov-17 07:00S 22°16' E 166°26'1 2.3
2017-Nov-17 06:30S 22°17' E 166°26'11 1.0
2017-Nov-16 19:56S 22°21' E 166°36'1124.6
2017-Nov-16 19:31S 22°16' E 166°26'0 0.6
2017-Nov-16 19:00S 22°16' E 166°26'0 0.0
2017-Nov-16 18:30S 22°16' E 166°26'0 0.0
2017-Nov-16 18:00S 22°16' E 166°26'0 0.0
2017-Nov-16 17:30S 22°16' E 166°26'0 0.0
2017-Nov-16 17:00S 22°16' E 166°26'0 0.0
2017-Nov-16 16:30S 22°16' E 166°26'0 0.0
2017-Nov-16 16:00S 22°16' E 166°26'0 0.0
2017-Nov-16 15:30S 22°16' E 166°26'0 0.0
2017-Nov-16 15:00S 22°16' E 166°26'0 0.0
2017-Nov-16 14:30S 22°16' E 166°26'0 0.0
2017-Nov-16 14:00S 22°16' E 166°26'0 0.0
2017-Nov-16 13:30S 22°16' E 166°26'0 0.0
2017-Nov-16 13:00S 22°16' E 166°26'0 0.0
2017-Nov-16 12:30S 22°16' E 166°26'0 0.0
2017-Nov-16 12:00S 22°16' E 166°26'0 0.0
2017-Nov-16 11:30S 22°16' E 166°26'0 0.0
2017-Nov-16 11:00S 22°16' E 166°26'0 0.0
2017-Nov-16 10:30S 22°16' E 166°26'0 0.0
2017-Nov-16 10:00S 22°16' E 166°26'0 0.0
2017-Nov-16 09:30S 22°16' E 166°26'0 0.0
2017-Nov-16 09:00S 22°16' E 166°26'0 0.0
2017-Nov-16 08:30S 22°16' E 166°26'0 0.0
2017-Nov-16 08:00S 22°16' E 166°26'0 0.0
2017-Nov-16 07:30S 22°16' E 166°26'0 0.0
2017-Nov-16 07:00S 22°16' E 166°26'1 2.0
2017-Nov-16 06:31S 22°17' E 166°26'14 1.4
2017-Nov-15 20:03S 22°23' E 166°40'235.0
2017-Nov-15 20:00S 22°23' E 166°37'1224.9
2017-Nov-15 19:31S 22°16' E 166°26'0 0.3
2017-Nov-15 19:00S 22°16' E 166°26'0 0.0
2017-Nov-15 18:30S 22°16' E 166°26'0 0.0
2017-Nov-15 18:01S 22°16' E 166°26'0 0.0
2017-Nov-15 17:31S 22°16' E 166°26'0 0.0
2017-Nov-15 17:01S 22°16' E 166°26'0 0.0
2017-Nov-15 16:31S 22°16' E 166°26'0 0.0
2017-Nov-15 16:01S 22°16' E 166°26'0 0.0
2017-Nov-15 15:31S 22°16' E 166°26'0 0.0
2017-Nov-15 15:00S 22°16' E 166°26'0 0.0
2017-Nov-15 14:30S 22°16' E 166°26'0 0.0
2017-Nov-15 14:00S 22°16' E 166°26'0 0.0
2017-Nov-15 13:31S 22°16' E 166°26'0 0.0
2017-Nov-15 13:01S 22°16' E 166°26'0 0.0
2017-Nov-15 12:31S 22°16' E 166°26'0 0.0
2017-Nov-15 12:00S 22°16' E 166°26'0 0.0
2017-Nov-15 11:30S 22°16' E 166°26'0 0.0
2017-Nov-15 11:01S 22°16' E 166°26'0 0.0
2017-Nov-15 10:31S 22°16' E 166°26'0 0.0
2017-Nov-15 10:00S 22°16' E 166°26'0 0.0
2017-Nov-15 09:31S 22°16' E 166°26'1121.6
2017-Nov-15 09:00S 22°22' E 166°36'1 0.7
2017-Nov-15 07:42S 22°23' E 166°37'736.0
2017-Nov-15 07:30S 22°21' E 166°30'611.2
2017-Nov-15 07:01S 22°16' E 166°26'1 2.0
2017-Nov-15 06:30S 22°17' E 166°26'14 2.2
2017-Nov-15 00:06S 22°23' E 166°39'331.2
2017-Nov-15 00:01S 22°22' E 166°36'1122.4
2017-Nov-14 23:31S 22°16' E 166°26'0 0.9
2017-Nov-14 23:00S 22°17' E 166°26'14 4.8
2017-Nov-14 20:03S 22°23' E 166°39'234.8
2017-Nov-14 20:00S 22°23' E 166°37'1224.9
2017-Nov-14 19:31S 22°16' E 166°26'0 0.1
2017-Nov-14 19:00S 22°16' E 166°26'0 0.0
2017-Nov-14 18:30S 22°16' E 166°26'0 0.0
2017-Nov-14 18:00S 22°16' E 166°26'0 0.0
2017-Nov-14 17:30S 22°16' E 166°26'0 0.0
2017-Nov-14 17:00S 22°16' E 166°26'0 0.0
2017-Nov-14 16:30S 22°16' E 166°26'0 0.0
2017-Nov-14 16:00S 22°16' E 166°26'0 0.0
2017-Nov-14 15:30S 22°16' E 166°26'0 0.0
2017-Nov-14 15:00S 22°16' E 166°26'0 0.0
2017-Nov-14 14:30S 22°16' E 166°26'0 0.0
2017-Nov-14 14:00S 22°16' E 166°26'0 0.0
2017-Nov-14 13:30S 22°16' E 166°26'0 0.0
2017-Nov-14 13:00S 22°16' E 166°26'0 0.0
2017-Nov-14 12:30S 22°16' E 166°26'0 0.0
2017-Nov-14 12:00S 22°16' E 166°26'0 0.0
2017-Nov-14 11:30S 22°16' E 166°26'0 0.0
2017-Nov-14 11:00S 22°16' E 166°26'1 2.2
2017-Nov-14 10:31S 22°17' E 166°26'13 5.4
2017-Nov-14 08:02S 22°23' E 166°39'134.3
2017-Nov-14 08:00S 22°23' E 166°38'1225.0
2017-Nov-14 07:31S 22°16' E 166°26'0 0.7
2017-Nov-14 07:00S 22°16' E 166°26'1 2.6
2017-Nov-14 06:31S 22°17' E 166°25'12 0.4
2017-Nov-12 19:59S 22°23' E 166°37'1225.8
2017-Nov-12 19:31S 22°16' E 166°26'0 0.5
2017-Nov-12 19:00S 22°16' E 166°26'0 0.0
2017-Nov-12 18:30S 22°16' E 166°26'0 0.0
2017-Nov-12 18:00S 22°16' E 166°26'0 0.0
2017-Nov-12 17:30S 22°16' E 166°26'0 0.0
2017-Nov-12 17:00S 22°16' E 166°26'0 0.0
2017-Nov-12 16:30S 22°16' E 166°26'0 0.0
2017-Nov-12 16:00S 22°16' E 166°26'0 0.0
2017-Nov-12 15:30S 22°16' E 166°26'0 0.0
2017-Nov-12 15:00S 22°16' E 166°26'0 0.0
2017-Nov-12 14:30S 22°16' E 166°26'0 0.0
2017-Nov-12 14:00S 22°16' E 166°26'0 0.0
2017-Nov-12 13:30S 22°16' E 166°26'0 0.0
2017-Nov-12 13:00S 22°16' E 166°26'0 0.0
2017-Nov-12 12:30S 22°16' E 166°26'0 0.0
2017-Nov-12 12:00S 22°16' E 166°26'0 0.0
2017-Nov-12 11:30S 22°16' E 166°26'0 0.0
2017-Nov-12 11:00S 22°16' E 166°26'0 0.0
2017-Nov-12 10:30S 22°16' E 166°26'0 0.0
2017-Nov-12 10:00S 22°16' E 166°26'0 0.0
2017-Nov-12 09:30S 22°16' E 166°26'0 0.0
2017-Nov-12 09:00S 22°16' E 166°26'0 0.0
2017-Nov-12 08:30S 22°16' E 166°26'0 0.0
2017-Nov-12 08:00S 22°16' E 166°26'0 0.0
2017-Nov-12 07:30S 22°16' E 166°26'0 0.0
2017-Nov-12 07:00S 22°16' E 166°26'0 0.0
2017-Nov-12 06:30S 22°16' E 166°26'0 0.0
2017-Nov-12 06:00S 22°16' E 166°26'0 0.0
2017-Nov-12 05:30S 22°16' E 166°26'0 0.0
2017-Nov-12 05:00S 22°16' E 166°26'0 0.0
2017-Nov-12 04:30S 22°16' E 166°26'0 0.0
2017-Nov-12 04:00S 22°16' E 166°26'0 0.0
2017-Nov-12 03:30S 22°16' E 166°26'0 0.0
2017-Nov-12 03:00S 22°16' E 166°26'0 0.0
2017-Nov-12 02:30S 22°16' E 166°26'0 0.0
2017-Nov-12 02:00S 22°16' E 166°26'0 0.0
2017-Nov-12 01:30S 22°16' E 166°26'0 0.0
2017-Nov-12 01:00S 22°16' E 166°26'0 0.0
2017-Nov-12 00:30S 22°16' E 166°26'0 0.0
2017-Nov-12 00:00S 22°16' E 166°26'0 0.0
2017-Nov-11 23:30S 22°16' E 166°26'0 0.0
2017-Nov-11 23:00S 22°16' E 166°26'0 0.0
2017-Nov-11 22:30S 22°16' E 166°26'0 0.0
2017-Nov-11 22:00S 22°16' E 166°26'0 0.0
2017-Nov-11 21:30S 22°16' E 166°26'0 0.0
2017-Nov-11 21:00S 22°16' E 166°26'0 0.0
2017-Nov-11 20:30S 22°16' E 166°26'0 0.0
2017-Nov-11 20:00S 22°16' E 166°26'0 0.0
2017-Nov-11 19:30S 22°16' E 166°26'0 0.0
2017-Nov-11 19:00S 22°16' E 166°26'0 0.0
2017-Nov-11 18:30S 22°16' E 166°26'0 0.0
2017-Nov-11 18:00S 22°16' E 166°26'0 0.0
2017-Nov-11 17:30S 22°16' E 166°26'0 0.0
2017-Nov-11 17:00S 22°16' E 166°26'0 0.0
2017-Nov-11 16:30S 22°16' E 166°26'0 0.0
2017-Nov-11 16:00S 22°16' E 166°26'0 0.0
2017-Nov-11 15:30S 22°16' E 166°26'0 0.0
2017-Nov-11 15:00S 22°16' E 166°26'0 0.0
2017-Nov-11 14:30S 22°16' E 166°26'0 0.0
2017-Nov-11 14:00S 22°16' E 166°26'0 0.0
2017-Nov-11 13:30S 22°16' E 166°26'0 0.0
2017-Nov-11 13:00S 22°16' E 166°26'0 0.0
2017-Nov-11 12:30S 22°16' E 166°26'0 0.0
2017-Nov-11 12:00S 22°16' E 166°26'0 0.0
2017-Nov-11 11:30S 22°16' E 166°26'0 0.0
2017-Nov-11 11:00S 22°16' E 166°26'0 0.0
2017-Nov-11 10:30S 22°16' E 166°26'0 0.0
2017-Nov-11 10:00S 22°16' E 166°26'0 0.5
2017-Nov-11 09:30S 22°16' E 166°26'1324.7
2017-Nov-11 08:58S 22°23' E 166°38'1 0.8
2017-Nov-11 07:44S 22°23' E 166°37'835.1
2017-Nov-11 07:31S 22°20' E 166°29'5 9.9
2017-Nov-11 07:00S 22°16' E 166°26'0 0.0
2017-Nov-11 06:30S 22°16' E 166°26'0 0.0
2017-Nov-11 06:00S 22°16' E 166°26'0 0.0
2017-Nov-11 05:30S 22°16' E 166°26'0 0.0
2017-Nov-11 05:00S 22°16' E 166°26'0 0.0
2017-Nov-11 04:30S 22°16' E 166°26'0 0.0
2017-Nov-11 04:00S 22°16' E 166°26'0 0.0
2017-Nov-11 03:30S 22°16' E 166°26'0 0.0
2017-Nov-11 03:00S 22°16' E 166°26'0 0.0
2017-Nov-11 02:30S 22°16' E 166°26'0 0.0
2017-Nov-11 02:00S 22°16' E 166°26'0 0.0
2017-Nov-11 01:30S 22°16' E 166°26'0 0.0
2017-Nov-11 01:00S 22°16' E 166°26'0 0.0
2017-Nov-11 00:30S 22°16' E 166°26'0 0.0
2017-Nov-11 00:00S 22°16' E 166°26'0 0.0
2017-Nov-10 23:30S 22°16' E 166°26'1 1.1
2017-Nov-10 23:00S 22°17' E 166°26'12 3.8
2017-Nov-10 19:59S 22°21' E 166°38'1224.8
2017-Nov-10 19:30S 22°16' E 166°26'0 0.5
2017-Nov-10 19:00S 22°16' E 166°26'0 0.0
2017-Nov-10 18:30S 22°16' E 166°26'0 0.0
2017-Nov-10 18:00S 22°16' E 166°26'0 0.0
2017-Nov-10 17:30S 22°16' E 166°26'0 0.0
2017-Nov-10 17:00S 22°16' E 166°26'0 0.0
2017-Nov-10 16:30S 22°16' E 166°26'0 0.0
2017-Nov-10 16:00S 22°16' E 166°26'0 0.0
2017-Nov-10 15:30S 22°16' E 166°26'0 0.0
2017-Nov-10 15:00S 22°16' E 166°26'0 0.0
2017-Nov-10 14:30S 22°16' E 166°26'0 0.0
2017-Nov-10 14:00S 22°16' E 166°26'0 0.0
2017-Nov-10 13:30S 22°16' E 166°26'0 0.0
2017-Nov-10 13:00S 22°16' E 166°26'0 0.0
2017-Nov-10 12:30S 22°16' E 166°26'0 0.0
2017-Nov-10 12:00S 22°16' E 166°26'0 0.0
2017-Nov-10 11:30S 22°16' E 166°26'0 0.0
2017-Nov-10 11:00S 22°16' E 166°26'2 3.6
2017-Nov-10 10:31S 22°18' E 166°25'14 5.7
2017-Nov-10 08:04S 22°23' E 166°39'231.3
2017-Nov-10 07:59S 22°23' E 166°37'1224.6
2017-Nov-10 07:30S 22°17' E 166°26'1 1.0
2017-Nov-10 07:01S 22°16' E 166°26'2 4.5
2017-Nov-10 06:31S 22°18' E 166°25'14 1.3
2017-Nov-09 20:06S 22°23' E 166°39'  

Dump ship's entire track history